Time,TemperatureF,DewpointF,PressureIn,WindDirection,WindDirectionDegrees,WindSpeedMPH,WindSpeedGustMPH,Humidity,HourlyPrecipIn,Conditions,Clouds,dailyrainin,SoftwareType,DateUTC
2013-05-28 00:02:00,48.1,45.6,29.67,SSW,199,0.0,0.0,91,0.05,,SKC,0.01,WeatherDisplay:10.37,2013-05-28 06:02:00,
2013-05-28 00:07:00,48.0,45.8,29.67,SSW,199,0.0,0.0,92,0.04,RA,SKC,0.01,WeatherDisplay:10.37,2013-05-28 06:07:00,
2013-05-28 00:12:00,47.9,45.7,29.67,SSW,199,0.0,0.0,92,0.04,CLR,SKC,0.01,WeatherDisplay:10.37,2013-05-28 06:12:00,
2013-05-28 00:17:00,47.8,45.6,29.67,SSW,199,0.0,0.0,92,0.04,CLR,SKC,0.01,WeatherDisplay:10.37,2013-05-28 06:17:00,
2013-05-28 00:22:00,47.7,45.5,29.67,SSW,199,0.0,0.0,92,0.03,CLR,SKC,0.01,WeatherDisplay:10.37,2013-05-28 06:22:00,
2013-05-28 00:28:00,47.6,45.4,29.66,SSW,207,2.3,2.3,92,0.03,CLR,SKC,0.01,WeatherDisplay:10.37,2013-05-28 06:28:00,
2013-05-28 00:33:00,47.4,45.5,29.66,SW,236,3.5,3.5,93,0.03,CLR,SKC,0.01,WeatherDisplay:10.37,2013-05-28 06:33:00,
2013-05-28 00:38:00,47.5,45.6,29.66,WSW,237,3.5,3.5,93,0.03,CLR,SKC,0.01,WeatherDisplay:10.37,2013-05-28 06:38:00,
2013-05-28 00:43:00,47.8,46.2,29.66,SW,233,2.3,2.3,94,0.02,CLR,SKC,0.01,WeatherDisplay:10.37,2013-05-28 06:43:00,
2013-05-28 00:48:00,47.8,46.2,29.66,SW,233,0.0,0.0,94,0.02,CLR,SKC,0.01,WeatherDisplay:10.37,2013-05-28 06:48:00,
2013-05-28 00:53:00,47.8,46.2,29.66,SW,233,0.0,0.0,94,0.01,CLR,SKC,0.01,WeatherDisplay:10.37,2013-05-28 06:53:00,
2013-05-28 00:58:00,47.8,46.2,29.66,SW,233,0.0,0.0,94,0.00,CLR,SKC,0.01,WeatherDisplay:10.37,2013-05-28 06:58:00,
2013-05-28 01:03:00,47.8,46.2,29.66,SW,233,0.0,0.0,94,0.00,CLR,SKC,0.01,WeatherDisplay:10.37,2013-05-28 07:03:00,
2013-05-28 01:08:00,47.7,46.1,29.66,SW,233,0.0,0.0,94,0.00,CLR,SKC,0.01,WeatherDisplay:10.37,2013-05-28 07:08:00,
2013-05-28 01:13:00,47.6,46.0,29.66,SW,233,0.0,0.0,94,0.00,CLR,SKC,0.01,WeatherDisplay:10.37,2013-05-28 07:13:00,
2013-05-28 01:19:00,47.4,45.8,29.66,SW,233,1.0,1.0,94,0.00,CLR,SKC,0.01,WeatherDisplay:10.37,2013-05-28 07:19:00,
2013-05-28 01:24:00,47.4,45.8,29.66,SW,233,0.0,0.0,94,0.00,CLR,SKC,0.01,WeatherDisplay:10.37,2013-05-28 07:24:00,
2013-05-28 01:29:00,47.4,45.8,29.66,SW,233,0.0,0.0,94,0.00,CLR,SKC,0.01,WeatherDisplay:10.37,2013-05-28 07:29:00,
2013-05-28 01:35:00,47.3,45.7,29.65,SW,233,0.0,0.0,94,0.00,CLR,SKC,0.01,WeatherDisplay:10.37,2013-05-28 07:35:00,
2013-05-28 01:40:00,47.2,45.6,29.65,SW,233,0.0,0.0,94,0.00,CLR,SKC,0.01,WeatherDisplay:10.37,2013-05-28 07:40:00,
2013-05-28 01:45:00,47.2,45.6,29.65,SW,233,0.0,0.0,94,0.00,RA,SKC,0.01,WeatherDisplay:10.37,2013-05-28 07:45:00,
2013-05-28 01:51:00,47.0,45.4,29.65,SW,233,0.0,0.0,94,0.01,RA,SKC,0.02,WeatherDisplay:10.37,2013-05-28 07:51:00,
2013-05-28 01:56:00,47.0,45.4,29.65,SW,233,0.0,0.0,94,0.01,RA,SKC,0.02,WeatherDisplay:10.37,2013-05-28 07:56:00,
2013-05-28 02:01:00,46.9,45.3,29.65,SW,233,0.0,0.0,94,0.01,,SKC,0.02,WeatherDisplay:10.37,2013-05-28 08:01:00,
2013-05-28 02:06:00,46.9,45.5,29.65,SW,233,0.0,0.0,95,0.01,CLR,SKC,0.02,WeatherDisplay:10.37,2013-05-28 08:06:00,
2013-05-28 02:11:00,46.9,45.5,29.65,SW,233,0.0,0.0,95,0.01,CLR,SKC,0.02,WeatherDisplay:10.37,2013-05-28 08:11:00,
2013-05-28 02:16:00,46.9,45.5,29.65,SW,233,0.0,0.0,95,0.01,CLR,SKC,0.02,WeatherDisplay:10.37,2013-05-28 08:16:00,
2013-05-28 02:21:00,47.0,45.6,29.65,SW,233,0.0,0.0,95,0.01,CLR,SKC,0.02,WeatherDisplay:10.37,2013-05-28 08:21:00,
2013-05-28 02:26:00,47.0,45.6,29.65,SW,233,0.0,0.0,95,0.01,CLR,SKC,0.02,WeatherDisplay:10.37,2013-05-28 08:26:00,
2013-05-28 02:32:00,46.9,45.5,29.65,SW,233,0.0,0.0,95,0.01,CLR,SKC,0.02,WeatherDisplay:10.37,2013-05-28 08:32:00,
2013-05-28 02:37:00,46.9,45.5,29.65,SW,233,0.0,0.0,95,0.01,CLR,SKC,0.02,WeatherDisplay:10.37,2013-05-28 08:37:00,
2013-05-28 02:42:00,46.9,45.5,29.65,SW,233,0.0,0.0,95,0.01,CLR,SKC,0.02,WeatherDisplay:10.37,2013-05-28 08:42:00,
2013-05-28 02:47:00,46.8,45.4,29.65,SW,233,0.0,0.0,95,0.01,CLR,SKC,0.02,WeatherDisplay:10.37,2013-05-28 08:47:00,
2013-05-28 02:52:00,46.9,45.5,29.65,SW,233,0.0,0.0,95,0.00,CLR,SKC,0.02,WeatherDisplay:10.37,2013-05-28 08:52:00,
2013-05-28 02:57:00,46.8,45.4,29.65,SW,233,0.0,0.0,95,0.00,CLR,SKC,0.02,WeatherDisplay:10.37,2013-05-28 08:57:00,
2013-05-28 03:03:00,46.8,45.4,29.65,SW,233,0.0,0.0,95,0.00,CLR,SKC,0.02,WeatherDisplay:10.37,2013-05-28 09:03:00,
2013-05-28 03:08:00,46.9,45.5,29.65,SW,233,0.0,0.0,95,0.00,CLR,SKC,0.02,WeatherDisplay:10.37,2013-05-28 09:08:00,
2013-05-28 03:13:00,46.8,45.4,29.65,SW,233,0.0,0.0,95,0.00,CLR,SKC,0.02,WeatherDisplay:10.37,2013-05-28 09:13:00,
2013-05-28 03:18:00,46.8,45.4,29.65,SW,233,0.0,0.0,95,0.00,CLR,SKC,0.02,WeatherDisplay:10.37,2013-05-28 09:18:00,
2013-05-28 03:23:00,46.9,45.5,29.64,SW,233,0.0,0.0,95,0.00,CLR,SKC,0.02,WeatherDisplay:10.37,2013-05-28 09:23:00,
2013-05-28 03:28:00,46.8,45.4,29.65,SW,233,0.0,0.0,95,0.00,CLR,SKC,0.02,WeatherDisplay:10.37,2013-05-28 09:28:00,
2013-05-28 03:33:00,46.8,45.4,29.64,SW,233,0.0,0.0,95,0.00,CLR,SKC,0.02,WeatherDisplay:10.37,2013-05-28 09:33:00,
2013-05-28 03:38:00,46.9,45.5,29.64,SW,233,0.0,0.0,95,0.00,CLR,SKC,0.02,WeatherDisplay:10.37,2013-05-28 09:38:00,
2013-05-28 03:43:00,46.9,45.5,29.64,SW,233,0.0,0.0,95,0.00,CLR,SKC,0.02,WeatherDisplay:10.37,2013-05-28 09:43:00,
2013-05-28 03:48:00,46.9,45.5,29.64,SW,233,0.0,0.0,95,0.00,CLR,SKC,0.02,WeatherDisplay:10.37,2013-05-28 09:48:00,
2013-05-28 03:53:00,46.9,45.5,29.64,SW,233,0.0,0.0,95,0.00,CLR,SKC,0.02,WeatherDisplay:10.37,2013-05-28 09:53:00,
2013-05-28 03:58:00,46.9,45.5,29.64,SW,233,0.0,0.0,95,0.00,CLR,SKC,0.02,WeatherDisplay:10.37,2013-05-28 09:58:00,
2013-05-28 04:04:00,46.9,45.5,29.64,SW,233,0.0,0.0,95,0.00,CLR,SKC,0.02,WeatherDisplay:10.37,2013-05-28 10:04:00,
2013-05-28 04:09:00,47.0,45.6,29.64,SW,233,0.0,0.0,95,0.00,CLR,SKC,0.02,WeatherDisplay:10.37,2013-05-28 10:09:00,
2013-05-28 04:14:00,47.0,45.6,29.64,SW,233,0.0,0.0,95,0.00,CLR,SKC,0.02,WeatherDisplay:10.37,2013-05-28 10:14:00,
2013-05-28 04:19:00,46.9,45.5,29.64,SW,233,0.0,0.0,95,0.00,CLR,SKC,0.02,WeatherDisplay:10.37,2013-05-28 10:19:00,
2013-05-28 04:24:00,46.9,45.5,29.64,SW,233,0.0,0.0,95,0.00,CLR,SKC,0.02,WeatherDisplay:10.37,2013-05-28 10:24:00,
2013-05-28 04:29:00,46.9,45.5,29.64,SW,233,0.0,0.0,95,0.00,CLR,SKC,0.02,WeatherDisplay:10.37,2013-05-28 10:29:00,
2013-05-28 04:34:00,46.9,45.5,29.64,SW,233,0.0,0.0,95,0.00,CLR,SKC,0.02,WeatherDisplay:10.37,2013-05-28 10:34:00,
2013-05-28 04:39:00,46.9,45.5,29.64,SW,233,0.0,0.0,95,0.01,RA,SKC,0.03,WeatherDisplay:10.37,2013-05-28 10:39:00,
2013-05-28 04:44:00,46.9,45.5,29.64,SW,233,0.0,0.0,95,0.01,RA,SKC,0.03,WeatherDisplay:10.37,2013-05-28 10:44:00,
2013-05-28 04:50:00,47.0,45.9,29.64,SW,233,0.0,0.0,96,0.00,RA,SKC,0.03,WeatherDisplay:10.37,2013-05-28 10:50:00,
2013-05-28 04:55:00,47.0,45.9,29.64,SW,233,0.0,0.0,96,0.01,CLR,SKC,0.03,WeatherDisplay:10.37,2013-05-28 10:55:00,
2013-05-28 05:00:00,46.9,45.5,29.64,SW,233,0.0,0.0,95,0.01,CLR,SKC,0.03,WeatherDisplay:10.37,2013-05-28 11:00:00,
2013-05-28 05:05:00,46.8,45.4,29.64,SW,233,0.0,0.0,95,0.02,RA,SKC,0.04,WeatherDisplay:10.37,2013-05-28 11:05:00,
2013-05-28 05:11:00,46.7,45.3,29.64,SW,233,0.0,0.0,95,0.02,,SKC,0.04,WeatherDisplay:10.37,2013-05-28 11:11:00,
2013-05-28 05:16:00,46.7,45.6,29.64,SW,233,0.0,0.0,96,0.02,CLR,SKC,0.04,WeatherDisplay:10.37,2013-05-28 11:16:00,
2013-05-28 05:21:00,46.7,45.6,29.64,SW,233,0.0,0.0,96,0.02,CLR,SKC,0.04,WeatherDisplay:10.37,2013-05-28 11:21:00,
2013-05-28 05:26:00,46.7,45.6,29.64,SW,233,0.0,0.0,96,0.02,CLR,SKC,0.04,WeatherDisplay:10.37,2013-05-28 11:26:00,
2013-05-28 05:31:00,46.6,45.5,29.64,SW,233,0.0,0.0,96,0.02,CLR,SKC,0.04,WeatherDisplay:10.37,2013-05-28 11:31:00,
2013-05-28 05:36:00,46.6,45.5,29.64,SW,233,0.0,0.0,96,0.01,CLR,SKC,0.04,WeatherDisplay:10.37,2013-05-28 11:36:00,
2013-05-28 05:41:00,46.7,45.6,29.64,SW,233,0.0,0.0,96,0.01,CLR,SKC,0.04,WeatherDisplay:10.37,2013-05-28 11:41:00,
2013-05-28 05:47:00,46.6,45.5,29.64,SW,233,0.0,0.0,96,0.01,CLR,SKC,0.04,WeatherDisplay:10.37,2013-05-28 11:47:00,
2013-05-28 05:52:00,46.6,45.5,29.64,SW,233,0.0,0.0,96,0.01,CLR,SKC,0.04,WeatherDisplay:10.37,2013-05-28 11:52:00,
2013-05-28 05:57:00,46.6,45.5,29.64,SW,233,0.0,0.0,96,0.01,CLR,SKC,0.04,WeatherDisplay:10.37,2013-05-28 11:57:00,
2013-05-28 06:02:00,46.6,45.5,29.64,SW,233,0.0,0.0,96,0.01,RA,SKC,0.05,WeatherDisplay:10.37,2013-05-28 12:02:00,
2013-05-28 06:07:00,46.5,45.4,29.64,SW,233,0.0,0.0,96,0.01,RA,SKC,0.05,WeatherDisplay:10.37,2013-05-28 12:07:00,
2013-05-28 06:12:00,46.5,45.4,29.64,SW,233,0.0,0.0,96,0.01,,SKC,0.05,WeatherDisplay:10.37,2013-05-28 12:12:00,
2013-05-28 06:17:00,46.5,45.4,29.64,SW,233,0.0,0.0,96,0.01,CLR,SKC,0.05,WeatherDisplay:10.37,2013-05-28 12:17:00,
2013-05-28 06:22:00,46.5,45.4,29.64,SW,233,0.0,0.0,96,0.01,CLR,SKC,0.05,WeatherDisplay:10.37,2013-05-28 12:22:00,
2013-05-28 06:27:00,46.5,45.4,29.64,SW,233,0.0,0.0,96,0.01,CLR,SKC,0.05,WeatherDisplay:10.37,2013-05-28 12:27:00,
2013-05-28 06:32:00,46.5,45.4,29.63,SW,233,0.0,0.0,96,0.01,CLR,SKC,0.05,WeatherDisplay:10.37,2013-05-28 12:32:00,
2013-05-28 06:37:00,46.5,45.4,29.63,SW,233,0.0,0.0,96,0.01,CLR,SKC,0.05,WeatherDisplay:10.37,2013-05-28 12:37:00,
2013-05-28 06:42:00,46.6,45.5,29.63,SW,233,0.0,0.0,96,0.01,CLR,SKC,0.05,WeatherDisplay:10.37,2013-05-28 12:42:00,
2013-05-28 06:47:00,46.7,45.6,29.63,SW,233,0.0,0.0,96,0.01,CLR,SKC,0.05,WeatherDisplay:10.37,2013-05-28 12:47:00,
2013-05-28 06:52:00,46.9,45.8,29.63,SW,233,0.0,0.0,96,0.01,CLR,SKC,0.05,WeatherDisplay:10.37,2013-05-28 12:52:00,
2013-05-28 06:58:00,46.9,45.8,29.63,SW,233,0.0,0.0,96,0.01,CLR,SKC,0.05,WeatherDisplay:10.37,2013-05-28 12:58:00,
2013-05-28 07:03:00,47.0,45.9,29.63,SW,233,0.0,0.0,96,0.00,CLR,SKC,0.05,WeatherDisplay:10.37,2013-05-28 13:03:00,
2013-05-28 07:08:00,47.1,46.0,29.63,SW,233,0.0,0.0,96,0.00,CLR,SKC,0.05,WeatherDisplay:10.37,2013-05-28 13:08:00,
2013-05-28 07:13:00,47.3,46.2,29.63,SW,233,0.0,0.0,96,0.00,CLR,SKC,0.05,WeatherDisplay:10.37,2013-05-28 13:13:00,
2013-05-28 07:18:00,47.5,46.4,29.63,SW,233,0.0,0.0,96,0.00,CLR,SKC,0.05,WeatherDisplay:10.37,2013-05-28 13:18:00,
2013-05-28 07:23:00,47.6,46.5,29.64,SW,233,0.0,0.0,96,0.00,CLR,SKC,0.05,WeatherDisplay:10.37,2013-05-28 13:23:00,
2013-05-28 07:29:00,47.7,46.6,29.64,SW,233,0.0,0.0,96,0.00,CLR,SKC,0.05,WeatherDisplay:10.37,2013-05-28 13:29:00,
2013-05-28 07:34:00,47.8,46.7,29.64,SW,233,0.0,0.0,96,0.00,CLR,SKC,0.05,WeatherDisplay:10.37,2013-05-28 13:34:00,
2013-05-28 07:39:00,47.9,46.8,29.64,SW,233,0.0,0.0,96,0.00,CLR,SKC,0.05,WeatherDisplay:10.37,2013-05-28 13:39:00,
2013-05-28 07:43:00,48.0,46.9,29.64,SW,233,0.0,0.0,96,0.00,CLR,SKC,0.05,WeatherDisplay:10.37,2013-05-28 13:43:00,
2013-05-28 07:49:00,48.1,47.0,29.63,SW,233,0.0,0.0,96,0.00,CLR,SKC,0.05,WeatherDisplay:10.37,2013-05-28 13:49:00,
2013-05-28 07:54:00,48.1,47.0,29.63,SW,233,0.0,0.0,96,0.00,CLR,SKC,0.05,WeatherDisplay:10.37,2013-05-28 13:54:00,
2013-05-28 07:59:00,48.2,47.1,29.64,SW,233,0.0,0.0,96,0.00,CLR,SKC,0.05,WeatherDisplay:10.37,2013-05-28 13:59:00,
2013-05-28 08:05:00,48.2,47.1,29.64,SW,233,0.0,0.0,96,0.00,CLR,SKC,0.05,WeatherDisplay:10.37,2013-05-28 14:05:00,
2013-05-28 08:10:00,48.3,47.2,29.64,SW,233,0.0,0.0,96,0.00,CLR,SKC,0.05,WeatherDisplay:10.37,2013-05-28 14:10:00,
2013-05-28 08:15:00,48.3,47.2,29.64,SW,233,0.0,0.0,96,0.00,CLR,SKC,0.05,WeatherDisplay:10.37,2013-05-28 14:15:00,
2013-05-28 08:20:00,48.4,47.3,29.64,SW,233,0.0,0.0,96,0.00,CLR,SKC,0.05,WeatherDisplay:10.37,2013-05-28 14:20:00,
2013-05-28 08:25:00,48.5,47.4,29.64,SW,233,0.0,0.0,96,0.00,CLR,SKC,0.05,WeatherDisplay:10.37,2013-05-28 14:25:00,
2013-05-28 08:30:00,48.5,47.4,29.64,SW,233,0.0,0.0,96,0.00,CLR,SKC,0.05,WeatherDisplay:10.37,2013-05-28 14:30:00,
2013-05-28 08:35:00,48.6,47.5,29.64,SW,233,0.0,0.0,96,0.00,CLR,SKC,0.05,WeatherDisplay:10.37,2013-05-28 14:35:00,
2013-05-28 08:40:00,48.6,47.5,29.64,SW,233,0.0,0.0,96,0.00,CLR,SKC,0.05,WeatherDisplay:10.37,2013-05-28 14:40:00,
2013-05-28 08:45:00,48.6,47.5,29.64,SW,233,0.0,0.0,96,0.00,CLR,SKC,0.05,WeatherDisplay:10.37,2013-05-28 14:45:00,
2013-05-28 08:51:00,48.8,47.7,29.64,SW,233,0.0,0.0,96,0.00,CLR,SKC,0.05,WeatherDisplay:10.37,2013-05-28 14:51:00,
2013-05-28 08:57:00,48.8,47.7,29.64,SW,233,0.0,0.0,96,0.00,CLR,SKC,0.05,WeatherDisplay:10.37,2013-05-28 14:57:00,
2013-05-28 09:02:00,49.1,48.0,29.64,SW,233,0.0,0.0,96,0.00,CLR,SKC,0.05,WeatherDisplay:10.37,2013-05-28 15:02:00,
2013-05-28 09:07:00,49.2,48.1,29.64,SW,233,0.0,0.0,96,0.00,CLR,SKC,0.05,WeatherDisplay:10.37,2013-05-28 15:07:00,
2013-05-28 09:12:00,49.3,47.9,29.64,SW,233,0.0,0.0,95,0.00,CLR,SKC,0.05,WeatherDisplay:10.37,2013-05-28 15:12:00,
2013-05-28 09:17:00,49.5,48.1,29.64,SW,233,0.0,0.0,95,0.00,CLR,SKC,0.05,WeatherDisplay:10.37,2013-05-28 15:17:00,
2013-05-28 09:22:00,49.6,48.2,29.64,SW,233,0.0,0.0,95,0.00,CLR,SKC,0.05,WeatherDisplay:10.37,2013-05-28 15:22:00,
2013-05-28 09:27:00,49.6,47.9,29.64,SW,233,0.0,0.0,94,0.00,CLR,SKC,0.05,WeatherDisplay:10.37,2013-05-28 15:27:00,
2013-05-28 09:33:00,49.8,48.1,29.64,WSW,257,0.0,0.0,94,0.00,CLR,SKC,0.05,WeatherDisplay:10.37,2013-05-28 15:33:00,
2013-05-28 09:38:00,49.9,48.2,29.64,WSW,257,0.0,0.0,94,0.00,CLR,SKC,0.05,WeatherDisplay:10.37,2013-05-28 15:38:00,
2013-05-28 09:43:00,50.0,48.1,29.64,WSW,257,0.0,0.0,93,0.00,CLR,SKC,0.05,WeatherDisplay:10.37,2013-05-28 15:43:00,
2013-05-28 09:48:00,49.9,48.0,29.64,WSW,257,0.0,0.0,93,0.00,CLR,SKC,0.05,WeatherDisplay:10.37,2013-05-28 15:48:00,
2013-05-28 09:53:00,50.1,48.2,29.64,WSW,257,0.0,0.0,93,0.00,CLR,SKC,0.05,WeatherDisplay:10.37,2013-05-28 15:53:00,
2013-05-28 09:58:00,50.1,47.9,29.64,WSW,257,0.0,0.0,92,0.00,CLR,SKC,0.05,WeatherDisplay:10.37,2013-05-28 15:58:00,
2013-05-28 10:04:00,50.1,47.9,29.64,WSW,257,0.0,0.0,92,0.00,CLR,SKC,0.05,WeatherDisplay:10.37,2013-05-28 16:04:00,
2013-05-28 10:09:00,50.2,48.3,29.64,WSW,257,0.0,0.0,93,0.00,CLR,SKC,0.05,WeatherDisplay:10.37,2013-05-28 16:09:00,
2013-05-28 10:14:00,50.2,48.3,29.64,WSW,257,0.0,0.0,93,0.00,CLR,SKC,0.05,WeatherDisplay:10.37,2013-05-28 16:14:00,
2013-05-28 10:19:00,50.0,48.1,29.64,West,279,0.0,0.0,93,0.00,CLR,SKC,0.05,WeatherDisplay:10.37,2013-05-28 16:19:00,
2013-05-28 10:25:00,50.0,48.1,29.63,West,279,0.0,0.0,93,0.00,CLR,SKC,0.05,WeatherDisplay:10.37,2013-05-28 16:25:00,
2013-05-28 10:31:00,50.1,48.2,29.64,West,279,0.0,0.0,93,0.00,CLR,SKC,0.05,WeatherDisplay:10.37,2013-05-28 16:31:00,
2013-05-28 10:36:00,50.4,48.7,29.64,West,279,0.0,0.0,94,0.00,CLR,SKC,0.05,WeatherDisplay:10.37,2013-05-28 16:36:00,
2013-05-28 10:42:00,50.7,49.0,29.64,West,279,0.0,0.0,94,0.00,CLR,SKC,0.05,WeatherDisplay:10.37,2013-05-28 16:42:00,
2013-05-28 10:47:00,50.6,48.7,29.64,West,279,0.0,0.0,93,0.00,CLR,SKC,0.05,WeatherDisplay:10.37,2013-05-28 16:47:00,
2013-05-28 10:52:00,50.8,48.8,29.64,West,279,0.0,0.0,93,0.00,CLR,SKC,0.05,WeatherDisplay:10.37,2013-05-28 16:52:00,
2013-05-28 10:57:00,50.8,48.3,29.64,West,279,0.0,0.0,91,0.00,CLR,SKC,0.05,WeatherDisplay:10.37,2013-05-28 16:57:00,
2013-05-28 11:02:00,50.7,47.6,29.64,West,279,0.0,0.0,89,0.00,CLR,SKC,0.05,WeatherDisplay:10.37,2013-05-28 17:02:00,
2013-05-28 11:07:00,51.0,48.2,29.64,West,279,0.0,0.0,90,0.00,CLR,SKC,0.05,WeatherDisplay:10.37,2013-05-28 17:07:00,
2013-05-28 11:12:00,51.3,47.9,29.64,WNW,298,0.0,0.0,88,0.00,CLR,SKC,0.05,WeatherDisplay:10.37,2013-05-28 17:12:00,
2013-05-28 11:18:00,51.6,48.2,29.64,NNE,26,0.0,0.0,88,0.00,CLR,SKC,0.05,WeatherDisplay:10.37,2013-05-28 17:18:00,
2013-05-28 11:23:00,52.0,48.3,29.64,NNE,26,0.0,0.0,87,0.00,CLR,SKC,0.05,WeatherDisplay:10.37,2013-05-28 17:23:00,
2013-05-28 11:28:00,52.4,48.3,29.64,NNE,26,0.0,0.0,86,0.00,CLR,SKC,0.05,WeatherDisplay:10.37,2013-05-28 17:28:00,
2013-05-28 11:33:00,52.7,48.3,29.63,North,5,0.0,0.0,85,0.00,CLR,SKC,0.05,WeatherDisplay:10.37,2013-05-28 17:33:00,
2013-05-28 11:38:00,53.1,49.0,29.63,North,5,1.1,1.1,86,0.00,CLR,SKC,0.05,WeatherDisplay:10.37,2013-05-28 17:38:00,
2013-05-28 11:43:00,53.4,48.7,29.63,ENE,69,0.0,0.0,84,0.00,CLR,SKC,0.05,WeatherDisplay:10.37,2013-05-28 17:43:00,
2013-05-28 11:48:00,53.8,48.8,29.63,ENE,69,0.0,0.0,83,0.00,CLR,SKC,0.05,WeatherDisplay:10.37,2013-05-28 17:48:00,
2013-05-28 11:53:00,54.2,48.2,29.63,NE,40,0.0,0.0,80,0.00,CLR,SKC,0.05,WeatherDisplay:10.37,2013-05-28 17:53:00,
2013-05-28 11:59:00,54.7,49.3,29.63,NE,40,0.0,0.0,82,0.00,CLR,SKC,0.05,WeatherDisplay:10.37,2013-05-28 17:59:00,
2013-05-28 12:04:00,55.0,48.6,29.63,NE,34,2.3,2.3,79,0.00,CLR,SKC,0.05,WeatherDisplay:10.37,2013-05-28 18:04:00,
2013-05-28 12:09:00,55.2,49.1,29.63,NE,46,1.1,0.0,80,0.00,CLR,SKC,0.05,WeatherDisplay:10.37,2013-05-28 18:09:00,
2013-05-28 12:14:00,55.0,47.9,29.63,NE,52,0.0,0.0,77,0.00,CLR,SKC,0.05,WeatherDisplay:10.37,2013-05-28 18:14:00,
2013-05-28 12:19:00,55.0,47.9,29.63,NE,52,1.1,1.1,77,0.00,CLR,SKC,0.05,WeatherDisplay:10.37,2013-05-28 18:19:00,
2013-05-28 12:24:00,55.1,48.4,29.63,NE,52,1.1,1.1,78,0.00,CLR,SKC,0.05,WeatherDisplay:10.37,2013-05-28 18:24:00,
2013-05-28 12:29:00,55.0,48.3,29.63,NE,52,1.1,1.1,78,0.00,CLR,SKC,0.05,WeatherDisplay:10.37,2013-05-28 18:29:00,
2013-05-28 12:33:00,55.2,48.8,29.63,NE,52,1.1,0.0,79,0.00,CLR,SKC,0.05,WeatherDisplay:10.37,2013-05-28 18:33:00,
2013-05-28 12:38:00,55.4,48.7,29.63,NE,40,1.1,1.1,78,0.00,CLR,SKC,0.05,WeatherDisplay:10.37,2013-05-28 18:38:00,
2013-05-28 12:43:00,55.7,48.2,29.63,NE,41,1.1,1.1,76,0.00,CLR,SKC,0.05,WeatherDisplay:10.37,2013-05-28 18:43:00,
2013-05-28 12:48:00,56.0,50.3,29.63,NE,41,1.1,1.1,81,0.00,CLR,SKC,0.05,WeatherDisplay:10.37,2013-05-28 18:48:00,
2013-05-28 12:53:00,55.7,50.0,29.64,NE,41,1.1,1.1,81,0.00,CLR,SKC,0.05,WeatherDisplay:10.37,2013-05-28 18:53:00,
2013-05-28 12:58:00,55.5,50.7,29.64,NE,41,1.1,1.1,84,0.00,CLR,SKC,0.05,WeatherDisplay:10.37,2013-05-28 18:58:00,
2013-05-28 13:03:00,55.5,50.4,29.64,NE,46,1.1,1.1,83,0.00,CLR,SKC,0.05,WeatherDisplay:10.37,2013-05-28 19:03:00,
2013-05-28 13:08:00,55.8,50.1,29.64,North,355,1.1,1.1,81,0.00,CLR,SKC,0.05,WeatherDisplay:10.37,2013-05-28 19:08:00,
2013-05-28 13:13:00,56.3,50.2,29.63,ENE,73,3.5,3.5,80,0.00,CLR,SKC,0.05,WeatherDisplay:10.37,2013-05-28 19:13:00,
2013-05-28 13:18:00,57.0,49.9,29.63,ENE,58,3.5,3.5,77,0.00,CLR,SKC,0.05,WeatherDisplay:10.37,2013-05-28 19:18:00,
2013-05-28 13:23:00,57.6,49.4,29.63,NE,53,3.5,3.5,74,0.00,CLR,SKC,0.05,WeatherDisplay:10.37,2013-05-28 19:23:00,
2013-05-28 13:29:00,57.7,49.8,29.64,NE,49,2.3,2.3,75,0.00,CLR,SKC,0.05,WeatherDisplay:10.37,2013-05-28 19:29:00,
2013-05-28 13:34:00,58.1,51.6,29.64,NNE,20,1.1,1.1,79,0.00,CLR,SKC,0.05,WeatherDisplay:10.37,2013-05-28 19:34:00,
2013-05-28 13:40:00,57.5,50.3,29.63,North,3,1.0,3.0,77,0.00,RA,SKC,0.05,WeatherDisplay:10.37,2013-05-28 19:40:00,
2013-05-28 13:45:00,57.0,50.9,29.64,NE,35,2.3,2.3,80,0.00,CLR,SKC,0.05,WeatherDisplay:10.37,2013-05-28 19:45:00,
2013-05-28 13:50:00,57.2,52.7,29.64,NE,40,2.3,2.3,85,0.00,CLR,SKC,0.05,WeatherDisplay:10.37,2013-05-28 19:50:00,
2013-05-28 13:55:00,56.9,49.8,29.64,NNE,32,3.5,3.5,77,0.00,CLR,SKC,0.05,WeatherDisplay:10.37,2013-05-28 19:55:00,
2013-05-28 14:00:00,56.9,50.1,29.63,North,5,1.1,1.1,78,0.00,CLR,SKC,0.05,WeatherDisplay:10.37,2013-05-28 20:00:00,
2013-05-28 14:05:00,58.1,50.2,29.63,NNE,22,2.3,2.3,75,0.00,CLR,SKC,0.05,WeatherDisplay:10.37,2013-05-28 20:05:00,
2013-05-28 14:10:00,58.8,49.0,29.64,NNE,16,1.0,3.0,70,0.00,RA,SKC,0.05,WeatherDisplay:10.37,2013-05-28 20:10:00,
2013-05-28 14:15:00,58.2,48.8,29.64,NNE,32,2.3,2.3,71,0.00,CLR,SKC,0.05,WeatherDisplay:10.37,2013-05-28 20:15:00,
2013-05-28 14:20:00,57.1,48.9,29.64,NNE,32,2.3,2.3,74,0.00,CLR,SKC,0.05,WeatherDisplay:10.37,2013-05-28 20:20:00,
2013-05-28 14:25:00,56.0,50.0,29.64,NNE,33,0.0,2.0,80,0.00,RA,SKC,0.05,WeatherDisplay:10.37,2013-05-28 20:25:00,
2013-05-28 14:31:00,54.2,49.1,29.64,NNE,24,2.3,2.3,83,0.01,RA,SKC,0.06,WeatherDisplay:10.37,2013-05-28 20:31:00,
2013-05-28 14:36:00,53.3,49.2,29.64,NNE,24,1.1,0.0,86,0.01,RA,SKC,0.06,WeatherDisplay:10.37,2013-05-28 20:36:00,
2013-05-28 14:41:00,53.2,50.0,29.64,NNE,24,1.1,0.0,89,0.01,,SKC,0.06,WeatherDisplay:10.37,2013-05-28 20:41:00,
2013-05-28 14:46:00,53.9,51.3,29.64,NNE,24,2.3,2.3,91,0.01,CLR,SKC,0.06,WeatherDisplay:10.37,2013-05-28 20:46:00,
2013-05-28 14:51:00,53.7,49.9,29.64,NNE,32,1.1,1.1,87,0.01,CLR,SKC,0.06,WeatherDisplay:10.37,2013-05-28 20:51:00,
2013-05-28 14:56:00,53.7,49.9,29.64,NNE,32,1.1,1.1,87,0.01,CLR,SKC,0.06,WeatherDisplay:10.37,2013-05-28 20:56:00,
2013-05-28 15:01:00,53.8,49.4,29.64,NNE,32,0.0,0.0,85,0.01,CLR,SKC,0.06,WeatherDisplay:10.37,2013-05-28 21:01:00,
2013-05-28 15:07:00,54.8,49.1,29.64,NE,38,0.0,0.0,81,0.01,CLR,SKC,0.06,WeatherDisplay:10.37,2013-05-28 21:07:00,
2013-05-28 15:13:00,55.7,48.9,29.64,NE,34,1.1,1.1,78,0.01,CLR,SKC,0.06,WeatherDisplay:10.37,2013-05-28 21:13:00,
2013-05-28 15:18:00,56.2,49.1,29.64,NE,35,1.0,0.0,77,0.01,CLR,SKC,0.06,WeatherDisplay:10.37,2013-05-28 21:18:00,
2013-05-28 15:23:00,56.5,49.0,29.64,NE,44,0.0,0.0,76,0.01,CLR,SKC,0.06,WeatherDisplay:10.37,2013-05-28 21:23:00,
2013-05-28 15:28:00,56.7,48.9,29.63,ESE,111,1.1,1.1,75,0.01,CLR,SKC,0.06,WeatherDisplay:10.37,2013-05-28 21:28:00,
2013-05-28 15:33:00,57.1,50.0,29.64,ESE,111,0.0,0.0,77,0.00,CLR,SKC,0.06,WeatherDisplay:10.37,2013-05-28 21:33:00,
2013-05-28 15:39:00,57.2,48.6,29.64,East,91,1.1,1.1,73,0.00,CLR,SKC,0.06,WeatherDisplay:10.37,2013-05-28 21:39:00,
2013-05-28 15:44:00,56.8,49.3,29.64,East,91,0.0,0.0,76,0.00,CLR,SKC,0.06,WeatherDisplay:10.37,2013-05-28 21:44:00,
2013-05-28 15:49:00,56.6,49.1,29.64,East,91,0.0,0.0,76,0.00,CLR,SKC,0.06,WeatherDisplay:10.37,2013-05-28 21:49:00,
2013-05-28 15:54:00,56.4,48.9,29.63,East,91,0.0,0.0,76,0.00,CLR,SKC,0.06,WeatherDisplay:10.37,2013-05-28 21:54:00,
2013-05-28 15:59:00,56.3,48.5,29.63,East,91,0.0,0.0,75,0.00,CLR,SKC,0.06,WeatherDisplay:10.37,2013-05-28 21:59:00,
2013-05-28 16:04:00,56.3,49.5,29.63,East,91,0.0,0.0,78,0.00,CLR,SKC,0.06,WeatherDisplay:10.37,2013-05-28 22:04:00,
2013-05-28 16:09:00,56.5,49.4,29.63,East,91,0.0,0.0,77,0.00,CLR,SKC,0.06,WeatherDisplay:10.37,2013-05-28 22:09:00,
2013-05-28 16:14:00,57.0,49.9,29.63,East,91,0.0,0.0,77,0.00,CLR,SKC,0.06,WeatherDisplay:10.37,2013-05-28 22:14:00,
2013-05-28 16:19:00,57.7,48.4,29.62,NE,51,2.3,2.3,71,0.00,CLR,SKC,0.06,WeatherDisplay:10.37,2013-05-28 22:19:00,
2013-05-28 16:24:00,58.5,48.4,29.62,ENE,60,1.1,0.0,69,0.00,CLR,SKC,0.06,WeatherDisplay:10.37,2013-05-28 22:24:00,
2013-05-28 16:29:00,59.5,49.7,29.62,NE,49,3.5,3.5,70,0.00,CLR,SKC,0.06,WeatherDisplay:10.37,2013-05-28 22:29:00,
2013-05-28 16:34:00,59.9,48.5,29.62,ENE,75,1.1,1.1,66,0.00,CLR,SKC,0.06,WeatherDisplay:10.37,2013-05-28 22:34:00,
2013-05-28 16:39:00,60.3,48.5,29.62,ENE,75,1.1,1.1,65,0.00,CLR,SKC,0.06,WeatherDisplay:10.37,2013-05-28 22:39:00,
2013-05-28 16:45:00,60.2,46.7,29.62,ENE,65,3.5,3.5,61,0.00,CLR,SKC,0.06,WeatherDisplay:10.37,2013-05-28 22:45:00,
2013-05-28 16:50:00,60.2,48.8,29.62,NE,42,2.3,2.3,66,0.00,CLR,SKC,0.06,WeatherDisplay:10.37,2013-05-28 22:50:00,
2013-05-28 16:55:00,60.4,48.2,29.62,NE,53,1.1,1.1,64,0.00,CLR,SKC,0.06,WeatherDisplay:10.37,2013-05-28 22:55:00,
2013-05-28 17:00:00,60.6,47.1,29.62,ESE,117,1.1,1.1,61,0.00,CLR,SKC,0.06,WeatherDisplay:10.37,2013-05-28 23:00:00,
2013-05-28 17:05:00,60.7,47.6,29.63,ENE,65,0.0,3.0,62,0.00,RA,SKC,0.06,WeatherDisplay:10.37,2013-05-28 23:05:00,
2013-05-28 17:11:00,60.3,48.5,29.63,NNW,338,1.1,0.0,65,0.00,CLR,SKC,0.06,WeatherDisplay:10.37,2013-05-28 23:11:00,
2013-05-28 17:16:00,59.9,49.3,29.64,North,360,1.1,1.1,68,0.00,CLR,SKC,0.06,WeatherDisplay:10.37,2013-05-28 23:16:00,
2013-05-28 17:20:00,59.8,48.8,29.63,NE,36,0.0,0.0,67,0.00,CLR,SKC,0.06,WeatherDisplay:10.37,2013-05-28 23:20:00,
2013-05-28 17:25:00,59.8,48.8,29.63,NE,36,2.3,2.3,67,0.00,CLR,SKC,0.06,WeatherDisplay:10.37,2013-05-28 23:25:00,
2013-05-28 17:30:00,59.5,50.5,29.63,NE,51,2.3,2.3,72,0.00,CLR,SKC,0.06,WeatherDisplay:10.37,2013-05-28 23:30:00,
2013-05-28 17:35:00,59.1,49.7,29.63,NE,41,3.5,3.5,71,0.00,CLR,SKC,0.06,WeatherDisplay:10.37,2013-05-28 23:35:00,
2013-05-28 17:40:00,58.6,49.2,29.64,NE,45,1.0,2.0,71,0.00,RA,SKC,0.06,WeatherDisplay:10.37,2013-05-28 23:40:00,
2013-05-28 17:45:00,57.8,47.7,29.63,NE,46,0.0,0.1,69,0.00,CLR,SKC,0.06,WeatherDisplay:10.37,2013-05-28 23:45:00,
2013-05-28 17:50:00,57.3,47.6,29.64,NE,46,0.0,0.0,70,0.00,CLR,SKC,0.06,WeatherDisplay:10.37,2013-05-28 23:50:00,
2013-05-28 17:55:00,57.1,47.8,29.64,NE,46,0.0,0.0,71,0.00,CLR,SKC,0.06,WeatherDisplay:10.37,2013-05-28 23:55:00,
2013-05-28 18:00:00,57.0,48.4,29.64,NE,46,1.1,1.1,73,0.00,CLR,SKC,0.06,WeatherDisplay:10.37,2013-05-29 00:00:00,
2013-05-28 18:05:00,57.1,49.6,29.64,NE,46,1.0,1.0,76,0.00,CLR,SKC,0.06,WeatherDisplay:10.37,2013-05-29 00:05:00,
2013-05-28 18:11:00,57.2,47.5,29.64,NE,46,1.1,0.0,70,0.00,CLR,SKC,0.06,WeatherDisplay:10.37,2013-05-29 00:11:00,
2013-05-28 18:17:00,57.5,46.6,29.64,NE,46,1.1,1.1,67,0.00,CLR,SKC,0.06,WeatherDisplay:10.37,2013-05-29 00:17:00,
2013-05-28 18:22:00,57.6,47.1,29.64,NE,46,0.0,0.0,68,0.00,CLR,SKC,0.06,WeatherDisplay:10.37,2013-05-29 00:22:00,
2013-05-28 18:27:00,57.8,48.1,29.64,NE,46,0.0,0.0,70,0.00,CLR,SKC,0.06,WeatherDisplay:10.37,2013-05-29 00:27:00,
2013-05-28 18:32:00,57.9,47.4,29.64,NE,46,1.1,1.1,68,0.00,CLR,SKC,0.06,WeatherDisplay:10.37,2013-05-29 00:32:00,
2013-05-28 18:37:00,58.1,48.0,29.64,NE,46,0.0,0.0,69,0.00,CLR,SKC,0.06,WeatherDisplay:10.37,2013-05-29 00:37:00,
2013-05-28 18:42:00,58.2,46.9,29.64,NE,43,1.1,0.0,66,0.00,CLR,SKC,0.06,WeatherDisplay:10.37,2013-05-29 00:42:00,
2013-05-28 18:47:00,58.2,48.5,29.64,NE,43,1.1,0.0,70,0.00,CLR,SKC,0.06,WeatherDisplay:10.37,2013-05-29 00:47:00,
2013-05-28 18:52:00,58.1,48.0,29.64,NE,43,1.1,1.1,69,0.00,CLR,SKC,0.06,WeatherDisplay:10.37,2013-05-29 00:52:00,
2013-05-28 18:57:00,57.9,48.6,29.64,NE,43,1.1,1.1,71,0.00,CLR,SKC,0.06,WeatherDisplay:10.37,2013-05-29 00:57:00,
2013-05-28 19:02:00,57.6,47.5,29.64,NE,42,1.1,1.1,69,0.00,CLR,SKC,0.06,WeatherDisplay:10.37,2013-05-29 01:02:00,
2013-05-28 19:07:00,57.2,45.5,29.64,NE,42,1.1,1.1,65,0.00,CLR,SKC,0.06,WeatherDisplay:10.37,2013-05-29 01:07:00,
2013-05-28 19:12:00,56.8,46.0,29.64,NE,42,1.1,1.1,67,0.00,CLR,SKC,0.06,WeatherDisplay:10.37,2013-05-29 01:12:00,
2013-05-28 19:18:00,56.3,47.0,29.65,NE,42,0.0,0.0,71,0.00,CLR,SKC,0.06,WeatherDisplay:10.37,2013-05-29 01:18:00,
2013-05-28 19:23:00,56.0,46.7,29.65,NE,42,0.0,0.0,71,0.00,CLR,SKC,0.06,WeatherDisplay:10.37,2013-05-29 01:23:00,
2013-05-28 19:28:00,55.8,46.9,29.65,NE,42,0.0,0.0,72,0.00,CLR,SKC,0.06,WeatherDisplay:10.37,2013-05-29 01:28:00,
2013-05-28 19:33:00,55.6,47.1,29.65,NE,42,0.0,0.0,73,0.00,CLR,SKC,0.06,WeatherDisplay:10.37,2013-05-29 01:33:00,
2013-05-28 19:38:00,55.6,47.4,29.65,NE,42,0.0,0.0,74,0.00,CLR,SKC,0.06,WeatherDisplay:10.37,2013-05-29 01:38:00,
2013-05-28 19:43:00,55.5,47.3,29.65,NE,42,0.0,0.0,74,0.00,CLR,SKC,0.06,WeatherDisplay:10.37,2013-05-29 01:43:00,
2013-05-28 19:49:00,55.2,47.4,29.64,NE,42,0.0,0.0,75,0.00,CLR,SKC,0.06,WeatherDisplay:10.37,2013-05-29 01:49:00,
2013-05-28 19:54:00,54.9,47.1,29.64,NE,42,0.0,0.0,75,0.00,CLR,SKC,0.06,WeatherDisplay:10.37,2013-05-29 01:54:00,
2013-05-28 20:00:00,54.6,47.5,29.64,NE,42,0.0,0.0,77,0.00,CLR,SKC,0.06,WeatherDisplay:10.37,2013-05-29 02:00:00,
2013-05-28 20:05:00,54.4,48.0,29.65,NE,42,0.0,0.0,79,0.00,CLR,SKC,0.06,WeatherDisplay:10.37,2013-05-29 02:05:00,
2013-05-28 20:10:00,54.3,47.9,29.65,NE,42,0.0,0.0,79,0.00,CLR,SKC,0.06,WeatherDisplay:10.37,2013-05-29 02:10:00,
2013-05-28 20:15:00,54.2,48.2,29.65,NE,42,0.0,0.0,80,0.00,CLR,SKC,0.06,WeatherDisplay:10.37,2013-05-29 02:15:00,
2013-05-28 20:20:00,54.1,48.1,29.65,NE,42,0.0,0.0,80,0.00,RA,SKC,0.06,WeatherDisplay:10.37,2013-05-29 02:20:00,
2013-05-28 20:25:00,54.0,48.0,29.65,NE,42,0.0,0.0,80,0.00,RA,SKC,0.06,WeatherDisplay:10.37,2013-05-29 02:25:00,
2013-05-28 20:31:00,53.8,48.1,29.65,NE,42,1.1,0.0,81,0.00,CLR,SKC,0.06,WeatherDisplay:10.37,2013-05-29 02:31:00,
2013-05-28 20:36:00,53.6,47.9,29.65,NE,42,0.0,0.0,81,0.00,CLR,SKC,0.06,WeatherDisplay:10.37,2013-05-29 02:36:00,
2013-05-28 20:41:00,53.5,47.8,29.65,NE,42,0.0,0.0,81,0.00,CLR,SKC,0.06,WeatherDisplay:10.37,2013-05-29 02:41:00,
2013-05-28 20:46:00,53.3,47.9,29.65,NE,42,0.0,0.0,82,0.00,CLR,SKC,0.06,WeatherDisplay:10.37,2013-05-29 02:46:00,
2013-05-28 20:51:00,53.0,47.7,29.65,NE,42,0.0,0.0,82,0.00,CLR,SKC,0.06,WeatherDisplay:10.37,2013-05-29 02:51:00,
2013-05-28 20:56:00,52.6,47.6,29.65,NE,42,0.0,0.0,83,0.00,CLR,SKC,0.06,WeatherDisplay:10.37,2013-05-29 02:56:00,
2013-05-28 21:01:00,52.4,47.4,29.65,NE,42,0.0,0.0,83,0.00,CLR,SKC,0.06,WeatherDisplay:10.37,2013-05-29 03:01:00,
2013-05-28 21:06:00,52.2,47.5,29.66,NW,313,1.1,1.1,84,0.00,CLR,SKC,0.06,WeatherDisplay:10.37,2013-05-29 03:06:00,
2013-05-28 21:12:00,51.9,46.9,29.65,ENE,57,3.5,3.5,83,0.00,CLR,SKC,0.06,WeatherDisplay:10.37,2013-05-29 03:12:00,
2013-05-28 21:17:00,51.9,47.2,29.66,SW,236,0.0,0.0,84,0.00,CLR,SKC,0.06,WeatherDisplay:10.37,2013-05-29 03:17:00,
2013-05-28 21:22:00,52.0,47.6,29.66,SW,236,0.0,0.0,85,0.00,CLR,SKC,0.06,WeatherDisplay:10.37,2013-05-29 03:22:00,
2013-05-28 21:27:00,52.1,47.7,29.66,SW,236,1.1,1.1,85,0.00,CLR,SKC,0.06,WeatherDisplay:10.37,2013-05-29 03:27:00,
2013-05-28 21:32:00,52.0,47.3,29.66,SW,236,0.0,0.0,84,0.00,CLR,SKC,0.06,WeatherDisplay:10.37,2013-05-29 03:32:00,
2013-05-28 21:37:00,52.1,47.7,29.66,SW,236,0.0,0.0,85,0.00,CLR,SKC,0.06,WeatherDisplay:10.37,2013-05-29 03:37:00,
2013-05-28 21:43:00,52.1,47.7,29.66,SW,236,0.0,0.0,85,0.00,CLR,SKC,0.06,WeatherDisplay:10.37,2013-05-29 03:43:00,
2013-05-28 21:48:00,52.0,47.6,29.66,SW,236,0.0,0.0,85,0.00,CLR,SKC,0.06,WeatherDisplay:10.37,2013-05-29 03:48:00,
2013-05-28 21:53:00,51.7,47.3,29.66,SW,236,0.0,0.0,85,0.00,CLR,SKC,0.06,WeatherDisplay:10.37,2013-05-29 03:53:00,
2013-05-28 21:58:00,51.6,47.5,29.66,SW,236,0.0,0.0,86,0.00,CLR,SKC,0.06,WeatherDisplay:10.37,2013-05-29 03:58:00,
2013-05-28 22:02:00,51.5,47.1,29.66,SW,236,0.0,0.0,85,0.00,CLR,SKC,0.06,WeatherDisplay:10.37,2013-05-29 04:02:00,
2013-05-28 22:05:00,51.5,47.5,29.67,SW,236,0.0,1.0,86,0.00,RA,SKC,0.06,WeatherDisplay:10.37,2013-05-29 04:05:00,
2013-05-28 22:07:00,51.5,47.5,29.67,SW,236,0.0,0.0,86,0.00,CLR,SKC,0.06,WeatherDisplay:10.37,2013-05-29 04:07:00,
2013-05-28 22:09:00,51.4,47.0,29.67,SW,236,0.0,0.0,85,0.00,CLR,SKC,0.06,WeatherDisplay:10.37,2013-05-29 04:09:00,
2013-05-28 22:14:00,51.3,46.6,29.67,SW,218,2.3,2.3,84,0.00,CLR,SKC,0.06,WeatherDisplay:10.37,2013-05-29 04:14:00,
2013-05-28 22:19:00,51.3,45.3,29.67,SSW,212,1.1,0.0,80,0.00,CLR,SKC,0.06,WeatherDisplay:10.37,2013-05-29 04:19:00,
2013-05-28 22:24:00,51.4,45.8,29.67,SSW,212,0.0,0.0,81,0.00,CLR,SKC,0.06,WeatherDisplay:10.37,2013-05-29 04:24:00,
2013-05-28 22:29:00,51.4,47.0,29.67,SSW,212,1.1,1.1,85,0.00,CLR,SKC,0.06,WeatherDisplay:10.37,2013-05-29 04:29:00,
2013-05-28 22:34:00,51.2,47.2,29.67,SSW,212,0.0,0.0,86,0.00,CLR,SKC,0.06,WeatherDisplay:10.37,2013-05-29 04:34:00,
2013-05-28 22:39:00,51.0,47.3,29.67,SSW,212,0.0,0.0,87,0.00,CLR,SKC,0.06,WeatherDisplay:10.37,2013-05-29 04:39:00,
2013-05-28 22:44:00,50.8,47.4,29.67,South,191,1.1,1.1,88,0.00,CLR,SKC,0.06,WeatherDisplay:10.37,2013-05-29 04:44:00,
2013-05-28 22:49:00,50.8,47.4,29.67,ENE,71,0.0,0.0,88,0.00,CLR,SKC,0.06,WeatherDisplay:10.37,2013-05-29 04:49:00,
2013-05-28 22:54:00,50.8,47.1,29.67,ENE,71,0.0,0.0,87,0.00,CLR,SKC,0.06,WeatherDisplay:10.37,2013-05-29 04:54:00,
2013-05-28 22:59:00,50.8,46.8,29.67,East,91,1.1,1.1,86,0.00,CLR,SKC,0.06,WeatherDisplay:10.37,2013-05-29 04:59:00,
2013-05-28 23:05:00,51.1,46.4,29.67,East,80,1.1,1.1,84,0.00,CLR,SKC,0.06,WeatherDisplay:10.37,2013-05-29 05:05:00,
2013-05-28 23:10:00,51.2,44.2,29.67,SE,144,0.0,0.0,77,0.00,CLR,SKC,0.06,WeatherDisplay:10.37,2013-05-29 05:10:00,
2013-05-28 23:15:00,51.4,44.4,29.67,East,97,3.5,3.5,77,0.00,CLR,SKC,0.06,WeatherDisplay:10.37,2013-05-29 05:15:00,
2013-05-28 23:20:00,51.6,45.0,29.68,NE,51,1.1,1.1,78,0.00,CLR,SKC,0.06,WeatherDisplay:10.37,2013-05-29 05:20:00,
2013-05-28 23:25:00,51.6,44.6,29.68,NE,52,1.1,1.1,77,0.00,CLR,SKC,0.06,WeatherDisplay:10.37,2013-05-29 05:25:00,
2013-05-28 23:30:00,51.7,45.1,29.68,NE,51,1.1,0.0,78,0.00,CLR,SKC,0.06,WeatherDisplay:10.37,2013-05-29 05:30:00,
2013-05-28 23:35:00,51.7,45.7,29.68,NE,52,0.0,0.0,80,0.00,CLR,SKC,0.06,WeatherDisplay:10.37,2013-05-29 05:35:00,
2013-05-28 23:40:00,51.7,45.7,29.68,NE,51,0.0,0.0,80,0.00,CLR,SKC,0.06,WeatherDisplay:10.37,2013-05-29 05:40:00,
2013-05-28 23:45:00,51.6,45.6,29.68,NE,51,1.0,1.0,80,0.00,CLR,SKC,0.06,WeatherDisplay:10.37,2013-05-29 05:45:00,
2013-05-28 23:50:00,51.5,45.9,29.67,NE,51,0.0,0.0,81,0.00,CLR,SKC,0.06,WeatherDisplay:10.37,2013-05-29 05:50:00,
2013-05-28 23:55:00,51.4,46.1,29.68,NE,51,0.0,0.0,82,0.00,CLR,SKC,0.00,WeatherDisplay:10.37,2013-05-29 05:55:00,